Peter R. Cresswell — VCBZ — position and weather

sailwx.info

Track history (hours):
 
Tides and Currents Weather Stations Pressure Air Temp Water Temp Dewpoint Dewpoint Depression Visibility Wind Speed Wind Dir Waves Ship Positions

Peter R. Cresswell

ex Algowest

Last reported at 2015-Feb-13 01:33 UTC. Time now 2015-Mar-04 18:56 UTC.
Position N 45°43' W 083°57'.
Warning: this ship's position is 19 days out of date.

Length 219.2 m; beam 23.2 m; draft 8.7 m.

Type: Ship. MMSI: 316001697.

Date/timePositionNaut miles runAvg speedWind from/ knotsBaromVisibWave heightAir tempDewpointWater temp
2015-Feb-13 01:33N 45°43' W 083°57'1212.2
2015-Feb-13 00:33N 45°49' W 084°13'9 8.7
2015-Feb-12 23:33N 45°51' W 084°25'9 9.2
2015-Feb-12 22:33N 45°50' W 084°38'8 8.1
2015-Feb-12 21:33N 45°50' W 084°50'5 4.5
2015-Feb-12 20:33N 45°50' W 084°56'5 4.7
2015-Feb-12 19:33N 45°52' W 085°03'1 1.4
2015-Feb-12 18:33N 45°52' W 085°05'4 3.5
2015-Feb-12 17:33N 45°52' W 085°10'2 1.9
2015-Feb-12 16:33N 45°52' W 085°12'5 5.2
2015-Feb-12 15:33N 45°53' W 085°20'4 3.8
2015-Feb-12 14:33N 45°53' W 085°25'2 1.8
2015-Feb-12 13:33N 45°53' W 085°28'1 1.1
2015-Feb-12 12:33N 45°53' W 085°29'0 0.0
2015-Feb-12 11:33N 45°53' W 085°29'0 0.0
2015-Feb-12 10:33N 45°53' W 085°29'0 0.0
2015-Feb-12 09:33N 45°53' W 085°29'0 0.0
2015-Feb-12 08:33N 45°53' W 085°29'0 0.0
2015-Feb-12 07:33N 45°53' W 085°29'0 0.0
2015-Feb-12 06:33N 45°53' W 085°29'0 0.0
2015-Feb-12 05:33N 45°53' W 085°29'0 0.0
2015-Feb-12 04:33N 45°53' W 085°29'0 0.0
2015-Feb-12 03:33N 45°53' W 085°29'0 0.0
2015-Feb-12 02:33N 45°53' W 085°29'0 0.0
2015-Feb-12 01:33N 45°53' W 085°29'0 0.1
2015-Feb-12 00:33N 45°53' W 085°29'1 1.5
2015-Feb-11 23:33N 45°53' W 085°31'0 0.1
2015-Feb-11 22:33N 45°54' W 085°31'0 0.0
2015-Feb-11 21:33N 45°54' W 085°31'0 0.0
2015-Feb-11 20:33N 45°54' W 085°31'0 0.1
2015-Feb-11 19:33N 45°54' W 085°32'0 0.2
2015-Feb-11 18:33N 45°53' W 085°32'0 0.0
2015-Feb-11 17:33N 45°53' W 085°32'0 0.0
2015-Feb-11 16:33N 45°53' W 085°32'0 0.0
2015-Feb-11 15:33N 45°53' W 085°32'0 0.0
2015-Feb-11 14:33N 45°53' W 085°32'6 6.4
2015-Feb-11 13:33N 45°52' W 085°41'6 5.8
2015-Feb-11 12:33N 45°49' W 085°48'9 9.0
2015-Feb-11 11:33N 45°44' W 085°59'1111.0
2015-Feb-11 10:33N 45°34' W 086°06'1212.2
2015-Feb-11 09:33N 45°23' W 086°13'7 0.2
2015-Feb-09 12:10N 45°19' W 086°21'711.7
2015-Feb-09 11:33N 45°25' W 086°17'1211.7
2015-Feb-09 10:33N 45°36' W 086°10'1111.1
2015-Feb-09 09:33N 45°44' W 085°59'1211.6
2015-Feb-09 08:33N 45°50' W 085°44'1110.5
2015-Feb-09 07:33N 45°53' W 085°30'8 7.8
2015-Feb-09 06:33N 45°52' W 085°19'5 5.3
2015-Feb-09 05:33N 45°52' W 085°11'5 4.6
2015-Feb-09 04:33N 45°52' W 085°05'6 5.9
2015-Feb-09 03:33N 45°50' W 084°57'8 7.8
2015-Feb-09 02:33N 45°49' W 084°45'9 8.8
2015-Feb-09 01:33N 45°51' W 084°33'1 0.8
2015-Feb-09 00:33N 45°51' W 084°32'0 0.0
2015-Feb-08 23:33N 45°51' W 084°32'3 2.7
2015-Feb-08 22:33N 45°52' W 084°28'1111.1
2015-Feb-08 21:33N 45°49' W 084°13'1411.8
2015-Feb-08 20:20N 45°43' W 083°54'  
2015-Feb-06 02:13N 45°46' W 083°57'6 9.1
2015-Feb-06 01:33N 45°48' W 084°05'10 9.6
2015-Feb-06 00:33N 45°50' W 084°18'1111.4
2015-Feb-05 23:33N 45°51' W 084°35'10 9.7
2015-Feb-05 22:33N 45°49' W 084°49'7 7.3
2015-Feb-05 21:33N 45°51' W 084°59'4 4.0
2015-Feb-05 20:33N 45°52' W 085°04'2 1.8
2015-Feb-05 19:33N 45°52' W 085°07'5 5.1
2015-Feb-05 18:33N 45°52' W 085°14'2 2.1
2015-Feb-05 17:33N 45°52' W 085°17'6 6.0
2015-Feb-05 16:33N 45°53' W 085°26'8 7.9
2015-Feb-05 15:33N 45°54' W 085°37'1 0.5
2015-Feb-05 14:33N 45°53' W 085°38'0 0.0
2015-Feb-05 13:33N 45°53' W 085°38'3 2.6
2015-Feb-05 12:33N 45°53' W 085°42'4 3.8
2015-Feb-05 11:33N 45°52' W 085°47'4 4.0
2015-Feb-05 10:33N 45°51' W 085°53'5 5.2
2015-Feb-05 09:33N 45°50' W 085°60'7 6.7
2015-Feb-05 08:33N 45°48' W 086°09'7 6.9
2015-Feb-05 07:33N 45°42' W 086°14'7 7.1
2015-Feb-05 06:33N 45°36' W 086°19'9 7.1
2015-Feb-05 05:19N 45°28' W 086°26'  
Track history (hours):
 
Tides and Currents Weather Stations Pressure Air Temp Water Temp Dewpoint Dewpoint Depression Visibility Wind Speed Wind Dir Waves Ship Positions

Peter R. Cresswell

ex Algowest

Last reported at 2015-Feb-13 01:33 UTC. Time now 2015-Mar-04 18:56 UTC.
Position N 45°43' W 083°57'.
Warning: this ship's position is 19 days out of date.

Length 219.2 m; beam 23.2 m; draft 8.7 m.

Type: Ship. MMSI: 316001697.

Date/timePositionNaut miles runAvg speedWind from/ knotsBaromVisibWave heightAir tempDewpointWater temp
2015-Feb-13 01:33N 45°43' W 083°57'1212.2
2015-Feb-13 00:33N 45°49' W 084°13'9 8.7
2015-Feb-12 23:33N 45°51' W 084°25'9 9.2
2015-Feb-12 22:33N 45°50' W 084°38'8 8.1
2015-Feb-12 21:33N 45°50' W 084°50'5 4.5
2015-Feb-12 20:33N 45°50' W 084°56'5 4.7
2015-Feb-12 19:33N 45°52' W 085°03'1 1.4
2015-Feb-12 18:33N 45°52' W 085°05'4 3.5
2015-Feb-12 17:33N 45°52' W 085°10'2 1.9
2015-Feb-12 16:33N 45°52' W 085°12'5 5.2
2015-Feb-12 15:33N 45°53' W 085°20'4 3.8
2015-Feb-12 14:33N 45°53' W 085°25'2 1.8
2015-Feb-12 13:33N 45°53' W 085°28'1 1.1
2015-Feb-12 12:33N 45°53' W 085°29'0 0.0
2015-Feb-12 11:33N 45°53' W 085°29'0 0.0
2015-Feb-12 10:33N 45°53' W 085°29'0 0.0
2015-Feb-12 09:33N 45°53' W 085°29'0 0.0
2015-Feb-12 08:33N 45°53' W 085°29'0 0.0
2015-Feb-12 07:33N 45°53' W 085°29'0 0.0
2015-Feb-12 06:33N 45°53' W 085°29'0 0.0
2015-Feb-12 05:33N 45°53' W 085°29'0 0.0
2015-Feb-12 04:33N 45°53' W 085°29'0 0.0
2015-Feb-12 03:33N 45°53' W 085°29'0 0.0
2015-Feb-12 02:33N 45°53' W 085°29'0 0.0
2015-Feb-12 01:33N 45°53' W 085°29'0 0.1
2015-Feb-12 00:33N 45°53' W 085°29'1 1.5
2015-Feb-11 23:33N 45°53' W 085°31'0 0.1
2015-Feb-11 22:33N 45°54' W 085°31'0 0.0
2015-Feb-11 21:33N 45°54' W 085°31'0 0.0
2015-Feb-11 20:33N 45°54' W 085°31'0 0.1
2015-Feb-11 19:33N 45°54' W 085°32'0 0.2
2015-Feb-11 18:33N 45°53' W 085°32'0 0.0
2015-Feb-11 17:33N 45°53' W 085°32'0 0.0
2015-Feb-11 16:33N 45°53' W 085°32'0 0.0
2015-Feb-11 15:33N 45°53' W 085°32'0 0.0
2015-Feb-11 14:33N 45°53' W 085°32'6 6.4
2015-Feb-11 13:33N 45°52' W 085°41'6 5.8
2015-Feb-11 12:33N 45°49' W 085°48'9 9.0
2015-Feb-11 11:33N 45°44' W 085°59'1111.0
2015-Feb-11 10:33N 45°34' W 086°06'1212.2
2015-Feb-11 09:33N 45°23' W 086°13'7 0.2
2015-Feb-09 12:10N 45°19' W 086°21'711.7
2015-Feb-09 11:33N 45°25' W 086°17'1211.7
2015-Feb-09 10:33N 45°36' W 086°10'1111.1
2015-Feb-09 09:33N 45°44' W 085°59'1211.6
2015-Feb-09 08:33N 45°50' W 085°44'1110.5
2015-Feb-09 07:33N 45°53' W 085°30'8 7.8
2015-Feb-09 06:33N 45°52' W 085°19'5 5.3
2015-Feb-09 05:33N 45°52' W 085°11'5 4.6
2015-Feb-09 04:33N 45°52' W 085°05'6 5.9
2015-Feb-09 03:33N 45°50' W 084°57'8 7.8
2015-Feb-09 02:33N 45°49' W 084°45'9 8.8
2015-Feb-09 01:33N 45°51' W 084°33'1 0.8
2015-Feb-09 00:33N 45°51' W 084°32'0 0.0
2015-Feb-08 23:33N 45°51' W 084°32'3 2.7
2015-Feb-08 22:33N 45°52' W 084°28'1111.1
2015-Feb-08 21:33N 45°49' W 084°13'1411.8
2015-Feb-08 20:20N 45°43' W 083°54'  
2015-Feb-06 02:13N 45°46' W 083°57'6 9.1
2015-Feb-06 01:33N 45°48' W 084°05'10 9.6
2015-Feb-06 00:33N 45°50' W 084°18'1111.4
2015-Feb-05 23:33N 45°51' W 084°35'10 9.7
2015-Feb-05 22:33N 45°49' W 084°49'7 7.3
2015-Feb-05 21:33N 45°51' W 084°59'4 4.0
2015-Feb-05 20:33N 45°52' W 085°04'2 1.8
2015-Feb-05 19:33N 45°52' W 085°07'5 5.1
2015-Feb-05 18:33N 45°52' W 085°14'2 2.1
2015-Feb-05 17:33N 45°52' W 085°17'6 6.0
2015-Feb-05 16:33N 45°53' W 085°26'8 7.9
2015-Feb-05 15:33N 45°54' W 085°37'1 0.5
2015-Feb-05 14:33N 45°53' W 085°38'0 0.0
2015-Feb-05 13:33N 45°53' W 085°38'3 2.6
2015-Feb-05 12:33N 45°53' W 085°42'4 3.8
2015-Feb-05 11:33N 45°52' W 085°47'4 4.0
2015-Feb-05 10:33N 45°51' W 085°53'5 5.2
2015-Feb-05 09:33N 45°50' W 085°60'7 6.7
2015-Feb-05 08:33N 45°48' W 086°09'7 6.9
2015-Feb-05 07:33N 45°42' W 086°14'7 7.1
2015-Feb-05 06:33N 45°36' W 086°19'9 7.1
2015-Feb-05 05:19N 45°28' W 086°26'  

Dump ship's entire track history